Time;durP1;ratioP1;P1;durP2;ratioP2;P2;SDS_P1;SDS_P2;PMS_P1;PMS_P2;Temp;Humidity;BMP_temperature;BMP_pressure;BME280_temperature;BME280_humidity;BME280_pressure;Samples;Min_cycle;Max_cycle;Signal;HPM_P1;HPM_P2
2023/02/09 00:00:47;;;;;;;;;76.40;64.80;;;;;0.20;49.52;101192.63;7736754;22;96222;-65
2023/02/09 00:03:50;;;;;;;;;77.20;64.00;;;;;0.15;50.10;101189.44;7709140;22;98244;-66
2023/02/09 00:06:53;;;;;;;;;75.60;65.00;;;;;0.07;50.88;101178.47;7684294;22;98446;-65
2023/02/09 00:09:57;;;;;;;;;77.60;64.60;;;;;-0.08;51.05;101172.34;7709847;22;96317;-65
2023/02/09 00:16:25;;;;;;;;;77.00;63.20;;;;;-0.18;51.14;101165.94;7737046;22;96265;-65
2023/02/09 00:19:29;;;;;;;;;76.40;67.00;;;;;-0.06;49.72;101174.91;7709803;22;98491;-65
2023/02/09 00:22:35;;;;;;;;;79.80;69.60;;;;;-0.17;50.01;101170.28;7736810;22;96251;-65
2023/02/09 00:25:39;;;;;;;;;77.00;65.25;;;;;-0.26;49.64;101164.72;7736640;22;96388;-65
2023/02/09 00:28:42;;;;;;;;;74.40;63.40;;;;;-0.29;50.36;101164.94;7709222;22;98833;-65
2023/02/09 00:31:49;;;;;;;;;77.00;64.60;;;;;-0.38;50.44;101152.25;7709297;22;96587;-65
2023/02/09 00:34:52;;;;;;;;;79.00;66.00;;;;;-0.32;50.51;101162.47;7737433;22;96885;-65
2023/02/09 00:37:56;;;;;;;;;77.00;64.50;;;;;-0.27;49.82;101150.63;7684072;22;98602;-65
2023/02/09 00:40:59;;;;;;;;;78.80;68.20;;;;;-0.22;50.03;101147.66;7737660;22;96348;-65
2023/02/09 00:44:02;;;;;;;;;77.20;66.20;;;;;-0.25;49.72;101139.94;7684116;22;98484;-65
2023/02/09 00:47:09;;;;;;;;;77.00;64.80;;;;;-0.46;49.66;101113.84;7710064;22;96228;-65
2023/02/09 00:50:12;;;;;;;;;74.80;61.40;;;;;-0.43;49.69;101103.03;7736725;22;96296;-65
2023/02/09 00:53:15;;;;;;;;;78.00;66.80;;;;;-0.27;50.56;101129.41;7710063;22;96251;-64
2023/02/09 00:56:19;;;;;;;;;76.00;62.60;;;;;-0.31;50.43;101116.47;7709482;22;96436;-64
2023/02/09 00:59:22;;;;;;;;;77.50;65.00;;;;;-0.26;50.40;101117.00;7737243;22;96276;-64
2023/02/09 01:02:27;;;;;;;;;77.40;63.20;;;;;-0.30;49.95;101092.50;7708794;22;97078;-64
2023/02/09 01:05:30;;;;;;;;;73.00;59.75;;;;;-0.20;50.25;101101.56;7709947;22;96526;-64
2023/02/09 01:08:33;;;;;;;;;72.80;57.80;;;;;-0.05;50.46;101108.50;7710011;22;96529;-64
2023/02/09 01:11:37;;;;;;;;;68.50;53.00;;;;;-0.01;50.75;101102.06;7736809;22;96721;-64
2023/02/09 01:14:41;;;;;;;;;71.25;57.25;;;;;0.03;50.46;101094.75;7709722;22;97265;-64
2023/02/09 01:17:46;;;;;;;;;71.00;57.00;;;;;0.11;50.63;101087.13;7683811;22;98276;-65
2023/02/09 01:20:49;;;;;;;;;73.00;59.00;;;;;0.15;49.90;101085.13;7737459;22;96297;-64
2023/02/09 01:23:53;;;;;;;;;70.00;56.00;;;;;0.18;49.46;101088.44;7684243;22;96611;-65
2023/02/09 01:26:56;;;;;;;;;75.00;61.00;;;;;0.18;49.23;101087.59;7710775;22;96772;-64
2023/02/09 01:30:00;;;;;;;;;73.00;60.20;;;;;0.13;48.87;101081.75;7737486;22;96327;-65
2023/02/09 01:33:05;;;;;;;;;76.60;63.00;;;;;0.06;49.13;101078.63;7710225;22;96281;-65
2023/02/09 01:36:10;;;;;;;;;74.20;61.00;;;;;0.00;48.74;101074.56;7736811;22;96861;-64
2023/02/09 01:39:13;;;;;;;;;75.75;64.50;;;;;-0.04;48.44;101066.94;7736530;22;96298;-65
2023/02/09 01:42:19;;;;;;;;;72.20;58.00;;;;;-0.14;48.19;101079.09;7709007;22;96295;-64
2023/02/09 01:45:29;;;;;;;;;75.80;65.00;;;;;-0.24;47.97;101084.13;7737249;22;96260;-65
2023/02/09 01:48:33;;;;;;;;;77.60;65.60;;;;;-0.28;48.54;101089.75;7709156;22;97164;-65
2023/02/09 01:51:43;;;;;;;;;79.00;67.60;;;;;-0.29;49.01;101096.03;7736769;22;96270;-64
2023/02/09 01:54:51;;;;;;;;;77.20;68.00;;;;;-0.25;48.89;101093.06;7710148;22;96579;-64
2023/02/09 01:57:57;;;;;;;;;79.40;69.60;;;;;-0.25;49.29;101089.56;7737254;22;96872;-64
2023/02/09 02:01:01;;;;;;;;;75.75;63.25;;;;;-0.27;49.48;101092.31;7709729;22;96525;-65
2023/02/09 02:04:06;;;;;;;;;77.67;68.67;;;;;-0.29;48.59;101091.53;7708749;22;96487;-64
2023/02/09 02:07:16;;;;;;;;;74.20;61.80;;;;;-0.46;47.20;101086.47;7683200;22;97474;-64
2023/02/09 02:10:19;;;;;;;;;76.00;63.75;;;;;-0.62;46.51;101073.34;7684046;22;98903;-64
2023/02/09 02:13:23;;;;;;;;;80.00;71.00;;;;;-0.94;46.63;101067.44;7684255;22;97301;-64
2023/02/09 02:16:41;;;;;;;;;80.40;69.00;;;;;-1.06;46.89;101059.41;7736860;22;97050;-64
2023/02/09 02:20:30;;;;;;;;;76.00;64.60;;;;;-1.26;47.83;101067.72;7710891;22;96243;-64
2023/02/09 02:23:47;;;;;;;;;83.80;73.80;;;;;-1.30;48.09;101064.41;7682407;22;96214;-65
2023/02/09 02:26:55;;;;;;;;;81.00;69.00;;;;;-1.29;48.23;101067.91;7711110;22;96851;-65
2023/02/09 02:30:38;;;;;;;;;78.60;69.00;;;;;-1.24;48.40;101066.69;7710658;22;96300;-64
2023/02/09 02:33:51;;;;;;;;;77.40;67.00;;;;;-1.29;48.14;101068.75;7734782;22;96266;-65
2023/02/09 02:37:05;;;;;;;;;79.40;67.40;;;;;-1.35;48.15;101063.84;7738253;22;96256;-65
2023/02/09 02:40:21;;;;;;;;;78.00;69.50;;;;;-1.42;48.43;101057.22;7738114;22;96274;-65
2023/02/09 02:43:40;;;;;;;;;81.00;71.80;;;;;-1.45;48.27;101054.75;7738669;22;96182;-65
2023/02/09 02:46:46;;;;;;;;;78.00;67.75;;;;;-1.42;48.17;101057.22;7710947;22;96595;-65
2023/02/09 02:49:56;;;;;;;;;79.60;71.60;;;;;-1.50;48.70;101062.97;7711359;22;96651;-65
2023/02/09 02:53:04;;;;;;;;;82.00;69.25;;;;;-1.60;47.83;101043.28;7711785;22;96659;-65
2023/02/09 02:56:12;;;;;;;;;77.00;67.20;;;;;-1.58;48.66;101054.66;7738764;22;96923;-66
2023/02/09 02:59:19;;;;;;;;;77.80;69.40;;;;;-1.56;48.53;101050.09;7711336;22;98298;-65
2023/02/09 03:02:27;;;;;;;;;79.00;65.40;;;;;-1.63;48.15;101048.78;7709297;22;96371;-65
2023/02/09 03:05:33;;;;;;;;;80.40;71.00;;;;;-1.77;48.68;101030.25;7738462;22;96364;-65
2023/02/09 03:08:47;;;;;;;;;76.00;64.50;;;;;-1.54;49.17;101045.56;7739079;22;96248;-65
2023/02/09 03:11:57;;;;;;;;;79.00;67.80;;;;;-1.43;48.41;101044.94;7710877;22;96685;-65
2023/02/09 03:15:18;;;;;;;;;84.20;71.60;;;;;-1.40;48.22;101037.66;7711588;22;96299;-65
2023/02/09 03:18:30;;;;;;;;;80.00;72.67;;;;;-1.46;48.01;101039.81;7737440;22;96420;-65
2023/02/09 03:21:46;;;;;;;;;81.50;71.75;;;;;-1.48;47.97;101042.56;7737872;22;96444;-65
2023/02/09 03:24:58;;;;;;;;;80.00;71.25;;;;;-1.69;47.46;101011.25;7710162;22;96546;-65
2023/02/09 03:28:06;;;;;;;;;75.00;65.00;;;;;-1.71;47.17;101029.84;7710500;22;96419;-65
2023/02/09 03:31:10;;;;;;;;;75.25;63.50;;;;;-1.80;47.14;101018.03;7709806;22;96706;-65
2023/02/09 03:34:15;;;;;;;;;76.75;65.00;;;;;-1.86;47.52;101025.50;7710736;22;97382;-65
2023/02/09 03:37:19;;;;;;;;;77.60;66.60;;;;;-1.87;47.90;101022.00;7710136;22;96311;-65
2023/02/09 03:40:23;;;;;;;;;79.40;71.00;;;;;-1.85;47.15;101012.16;7737906;22;97038;-65
2023/02/09 03:44:25;;;;;;;;;76.80;65.00;;;;;-1.89;47.74;101010.66;7737419;22;96145;-65
2023/02/09 03:46:49;;;;;;;;;78.00;63.25;;;;;-2.06;47.90;100996.75;7710101;22;96580;-65
2023/02/09 03:49:53;;;;;;;;;76.80;66.60;;;;;-1.91;47.90;101007.25;7710567;22;96246;-64
2023/02/09 03:52:58;;;;;;;;;76.20;67.40;;;;;-1.85;48.59;101000.75;7709481;22;96583;-65
2023/02/09 03:56:01;;;;;;;;;76.33;63.00;;;;;-1.78;48.24;100996.78;7710336;22;96264;-65
2023/02/09 03:59:04;;;;;;;;;76.00;63.00;;;;;-1.87;48.85;100971.78;7709427;22;98714;-64
2023/02/09 04:02:09;;;;;;;;;73.50;60.50;;;;;-1.62;48.91;101000.22;7736576;22;96259;-65
2023/02/09 04:05:13;;;;;;;;;72.00;59.40;;;;;-1.63;48.42;100984.44;7738211;22;96758;-65
2023/02/09 04:08:18;;;;;;;;;70.80;56.20;;;;;-1.48;49.37;100994.09;7738244;22;96680;-65
2023/02/09 04:11:21;;;;;;;;;69.00;55.25;;;;;-1.40;48.77;100995.31;7738251;22;96407;-65
2023/02/09 04:14:25;;;;;;;;;65.20;50.80;;;;;-1.35;49.60;100997.69;7738815;22;96415;-65
2023/02/09 04:17:29;;;;;;;;;67.00;53.00;;;;;-1.17;48.82;100999.19;7737877;22;96356;-65
2023/02/09 04:20:32;;;;;;;;;61.20;48.80;;;;;-1.06;48.83;100998.50;7738822;22;96260;-65
2023/02/09 04:23:37;;;;;;;;;60.75;47.75;;;;;-0.95;48.76;101007.50;7710270;22;98276;-65
2023/02/09 04:26:40;;;;;;;;;66.40;51.00;;;;;-0.88;48.83;101006.13;7738166;22;96124;-65
2023/02/09 04:29:43;;;;;;;;;62.00;48.20;;;;;-0.84;48.96;101004.16;7710932;22;96773;-65
2023/02/09 04:32:47;;;;;;;;;64.60;50.60;;;;;-0.93;47.91;100987.03;7736484;22;96336;-64
2023/02/09 04:35:51;;;;;;;;;66.75;52.00;;;;;-0.99;46.64;101003.34;7737845;22;96457;-64
2023/02/09 04:38:55;;;;;;;;;70.00;53.00;;;;;-1.22;46.21;101001.25;7710535;22;96314;-65
2023/02/09 04:41:59;;;;;;;;;68.25;52.25;;;;;-1.46;46.69;100994.84;7708755;22;97187;-65
2023/02/09 04:45:03;;;;;;;;;72.00;56.25;;;;;-1.61;46.75;101001.91;7737457;22;96287;-65
2023/02/09 04:48:06;;;;;;;;;71.40;53.40;;;;;-1.66;46.73;100985.47;7709605;22;96566;-65
2023/02/09 04:51:10;;;;;;;;;73.00;57.00;;;;;-1.79;47.25;100976.59;7709516;22;96480;-65
2023/02/09 04:54:14;;;;;;;;;73.20;57.60;;;;;-1.82;47.20;100982.06;7736705;22;96255;-65
2023/02/09 05:00:38;;;;;;;;;72.50;55.75;;;;;-1.79;46.78;100980.06;7736950;22;96248;-65
2023/02/09 05:03:42;;;;;;;;;71.60;54.20;;;;;-1.85;46.89;100983.09;7709710;22;96549;-65
2023/02/09 05:06:45;;;;;;;;;68.00;52.20;;;;;-1.87;47.25;100982.34;7736737;22;96336;-65
2023/02/09 05:09:50;;;;;;;;;66.00;51.20;;;;;-1.87;47.35;100979.69;7737030;22;96246;-65
2023/02/09 05:12:53;;;;;;;;;68.40;52.40;;;;;-1.83;47.19;100983.84;7736481;22;96387;-65
2023/02/09 05:15:57;;;;;;;;;67.25;51.75;;;;;-1.79;47.02;100987.16;7735277;22;96941;-66
2023/02/09 05:19:00;;;;;;;;;72.00;55.00;;;;;-1.80;47.45;100978.38;7735841;22;96958;-65
2023/02/09 05:22:03;;;;;;;;;70.60;53.40;;;;;-1.92;46.86;100960.63;7736685;22;96185;-65
2023/02/09 05:25:08;;;;;;;;;68.40;52.80;;;;;-1.81;46.83;100970.56;7735568;22;96791;-65
2023/02/09 05:28:12;;;;;;;;;67.00;51.40;;;;;-1.87;46.68;100973.56;7735524;22;96310;-65
2023/02/09 05:31:15;;;;;;;;;68.20;52.80;;;;;-1.94;47.56;100964.28;7708662;22;96619;-64
2023/02/09 05:34:19;;;;;;;;;69.60;53.00;;;;;-1.91;47.25;100966.75;7737130;22;96255;-65
2023/02/09 05:37:22;;;;;;;;;65.40;51.00;;;;;-1.91;47.97;100972.03;7710043;22;96556;-65
2023/02/09 05:40:27;;;;;;;;;63.20;50.00;;;;;-1.94;47.35;100959.84;7710019;22;96331;-66
2023/02/09 05:43:30;;;;;;;;;64.80;50.80;;;;;-1.98;47.26;100968.06;7708477;22;97143;-65
2023/02/09 05:46:33;;;;;;;;;66.50;51.25;;;;;-1.95;47.12;100971.34;7736423;22;96261;-66
2023/02/09 05:49:37;;;;;;;;;68.00;51.00;;;;;-1.96;46.87;100961.75;7684456;22;96623;-65
2023/02/09 05:52:40;;;;;;;;;64.20;51.20;;;;;-1.90;46.71;100969.28;7737264;22;96418;-65
2023/02/09 05:55:46;;;;;;;;;64.40;51.00;;;;;-1.94;47.52;100973.06;7737194;22;96322;-65
2023/02/09 05:58:49;;;;;;;;;64.80;49.80;;;;;-1.88;48.15;100972.72;7737025;22;96191;-65
2023/02/09 06:01:53;;;;;;;;;67.00;51.00;;;;;-1.92;47.30;100968.56;7709752;22;96672;-65
2023/02/09 06:04:56;;;;;;;;;67.00;51.75;;;;;-1.72;46.87;100982.38;7736508;22;96874;-64
2023/02/09 06:07:59;;;;;;;;;63.00;50.60;;;;;-1.80;46.55;100962.50;7736413;22;96349;-65
2023/02/09 06:11:04;;;;;;;;;64.50;49.00;;;;;-1.67;46.45;100977.66;7709693;22;98366;-66
2023/02/09 06:14:08;;;;;;;;;65.40;48.60;;;;;-1.69;45.87;100968.94;7709495;22;98295;-65
2023/02/09 06:17:11;;;;;;;;;67.40;52.40;;;;;-1.58;46.94;100979.72;7736633;22;96166;-65
2023/02/09 06:20:15;;;;;;;;;67.20;51.40;;;;;-1.46;46.91;100971.03;7709474;22;96377;-65
2023/02/09 06:23:18;;;;;;;;;66.00;51.00;;;;;-1.21;45.79;100976.50;7709948;22;96292;-66
2023/02/09 06:26:23;;;;;;;;;65.40;52.00;;;;;-0.85;45.05;100977.78;7735797;22;96515;-67
2023/02/09 06:29:27;;;;;;;;;64.00;50.00;;;;;-0.30;44.09;100969.72;7710103;22;97008;-66
2023/02/09 06:32:30;;;;;;;;;63.00;51.00;;;;;0.32;43.59;100973.44;7709531;22;96871;-65
2023/02/09 06:35:33;;;;;;;;;59.20;47.60;;;;;1.37;42.12;100969.41;7709105;22;96177;-65
2023/02/09 06:38:37;;;;;;;;;62.80;49.00;;;;;2.80;39.40;100977.06;7709144;22;98311;-65
2023/02/09 06:41:42;;;;;;;;;67.60;53.00;;;;;4.40;35.91;100973.50;7682875;22;96996;-69
2023/02/09 06:44:45;;;;;;;;;66.40;51.40;;;;;5.88;34.12;100972.75;7683181;22;96847;-69
2023/02/09 06:47:49;;;;;;;;;64.20;50.80;;;;;7.09;31.69;100980.91;7708219;22;98995;-69
2023/02/09 06:50:52;;;;;;;;;64.00;50.25;;;;;8.12;29.73;100973.28;7735804;22;96345;-69
2023/02/09 06:53:56;;;;;;;;;66.00;51.00;;;;;9.12;28.60;100971.81;7708443;22;98464;-68
2023/02/09 06:57:01;;;;;;;;;62.00;49.20;;;;;10.05;27.60;100974.38;7708695;22;96173;-69
2023/02/09 07:00:06;;;;;;;;;70.00;53.00;;;;;10.97;26.62;100963.16;7736324;22;96242;-69
2023/02/09 07:03:10;;;;;;;;;67.40;53.00;;;;;11.91;25.46;100958.47;7710367;22;96243;-69
2023/02/09 07:06:15;;;;;;;;;73.00;59.75;;;;;12.73;24.71;100953.19;7710013;22;96718;-69
2023/02/09 07:09:18;;;;;;;;;71.00;52.75;;;;;13.53;23.70;100954.09;7736725;22;96732;-69
2023/02/09 07:12:23;;;;;;;;;72.00;57.00;;;;;14.56;22.93;100953.66;7736320;22;96431;-68
2023/02/09 07:15:26;;;;;;;;;71.00;57.60;;;;;15.40;21.75;100957.06;7737696;22;96360;-69
2023/02/09 07:18:30;;;;;;;;;70.50;57.00;;;;;16.17;20.95;100951.22;7711852;22;96758;-69
2023/02/09 07:21:34;;;;;;;;;71.00;57.00;;;;;16.82;20.59;100953.09;7737094;22;96440;-68
2023/02/09 07:24:38;;;;;;;;;69.80;55.00;;;;;17.31;20.40;100958.84;7712225;22;96444;-69
2023/02/09 07:27:45;;;;;;;;;72.00;58.67;;;;;17.81;19.53;100950.03;7737627;22;96370;-69
2023/02/09 07:30:51;;;;;;;;;72.00;57.80;;;;;18.58;19.13;100955.16;7711667;22;96298;-69
2023/02/09 07:33:55;;;;;;;;;70.60;54.60;;;;;19.31;18.57;100952.50;7710335;22;96909;-68
2023/02/09 07:36:58;;;;;;;;;64.25;50.00;;;;;19.76;17.92;100950.25;7738429;22;96381;-68
2023/02/09 07:40:02;;;;;;;;;62.20;49.80;;;;;20.29;17.49;100944.81;7711288;22;96691;-69
2023/02/09 07:43:07;;;;;;;;;63.00;49.80;;;;;20.80;17.12;100944.19;7742080;22;96425;-70
2023/02/09 07:46:13;;;;;;;;;65.40;51.00;;;;;21.33;16.02;100949.53;7748612;22;96810;-69
2023/02/09 07:49:17;;;;;;;;;66.40;51.00;;;;;21.92;16.48;100928.16;7743898;22;96293;-70
2023/02/09 07:52:21;;;;;;;;;69.75;53.00;;;;;22.23;16.03;100935.91;7740496;22;96233;-70
2023/02/09 07:55:24;;;;;;;;;71.50;56.50;;;;;22.64;15.41;100948.41;7739216;22;96383;-69
2023/02/09 07:58:29;;;;;;;;;72.00;58.40;;;;;22.95;15.09;100941.47;7738723;22;97565;-69
2023/02/09 08:01:32;;;;;;;;;70.80;55.80;;;;;23.40;15.17;100935.75;7737602;22;96706;-69
2023/02/09 08:04:36;;;;;;;;;73.00;56.00;;;;;23.83;14.98;100940.41;7738876;22;97014;-70
2023/02/09 08:07:40;;;;;;;;;73.00;57.40;;;;;24.45;14.61;100934.38;7710633;22;96249;-70
2023/02/09 08:10:43;;;;;;;;;68.40;55.40;;;;;25.15;14.00;100920.25;7711146;22;96620;-70
2023/02/09 08:13:50;;;;;;;;;68.60;53.00;;;;;25.64;13.54;100923.53;7737580;22;96314;-69
2023/02/09 08:17:18;;;;;;;;;69.00;53.00;;;;;26.27;13.51;100926.97;7737422;22;96265;-70
2023/02/09 08:20:25;;;;;;;;;65.00;51.00;;;;;26.90;12.68;100930.25;7709552;22;96630;-70
2023/02/09 08:23:32;;;;;;;;;64.00;50.00;;;;;27.43;12.39;100915.66;7683926;22;96653;-69
2023/02/09 08:26:35;;;;;;;;;61.00;48.20;;;;;27.91;11.95;100922.34;7709028;22;96320;-70
2023/02/09 08:29:41;;;;;;;;;62.60;48.60;;;;;28.21;12.10;100923.28;7709711;22;96201;-70
2023/02/09 08:32:44;;;;;;;;;61.20;48.20;;;;;28.37;11.97;100920.09;7737038;22;96257;-70
2023/02/09 08:35:51;;;;;;;;;55.20;44.00;;;;;28.72;11.39;100910.63;7737197;22;96411;-70
2023/02/09 08:38:54;;;;;;;;;56.00;44.60;;;;;28.71;11.41;100913.66;7735855;22;96851;-69
2023/02/09 08:41:57;;;;;;;;;55.00;44.80;;;;;29.01;11.58;100912.56;7706153;22;96609;-69
2023/02/09 08:45:02;;;;;;;;;55.00;44.00;;;;;29.41;10.91;100914.03;7708308;22;96296;-69
2023/02/09 08:48:08;;;;;;;;;58.75;45.25;;;;;29.43;11.07;100923.72;7735517;22;96319;-69
2023/02/09 08:51:13;;;;;;;;;56.00;44.60;;;;;28.98;10.49;100913.94;7681298;22;97994;-69
2023/02/09 08:54:16;;;;;;;;;57.00;45.60;;;;;29.47;11.33;100919.22;7734229;22;96490;-69
2023/02/09 08:57:19;;;;;;;;;56.40;44.40;;;;;29.75;10.50;100905.50;7735993;22;96256;-70
2023/02/09 09:00:24;;;;;;;;;55.00;43.00;;;;;30.02;10.58;100902.88;7737919;22;96286;-70
2023/02/09 09:03:30;;;;;;;;;54.40;44.00;;;;;30.42;10.15;100906.94;7736179;22;96424;-69
2023/02/09 09:06:34;;;;;;;;;55.00;45.00;;;;;30.47;10.30;100898.53;7710006;22;98417;-70
2023/02/09 09:09:37;;;;;;;;;55.60;45.00;;;;;30.72;10.41;100906.44;7740276;22;96439;-69
2023/02/09 09:12:40;;;;;;;;;56.00;44.00;;;;;30.90;9.92;100907.47;7741260;22;96352;-70
2023/02/09 09:15:45;;;;;;;;;55.80;44.00;;;;;31.24;10.01;100896.78;7713697;22;96888;-70
2023/02/09 09:18:49;;;;;;;;;53.00;41.60;;;;;31.27;9.81;100903.72;7742528;22;97496;-69
2023/02/09 09:21:53;;;;;;;;;58.00;44.25;;;;;31.37;10.04;100906.28;7716936;22;96283;-69
2023/02/09 09:24:56;;;;;;;;;53.00;43.40;;;;;31.68;9.93;100896.13;7743470;22;96834;-68
2023/02/09 09:27:59;;;;;;;;;54.80;43.00;;;;;31.96;9.50;100905.22;7714517;22;98299;-69
2023/02/09 09:31:09;;;;;;;;;51.80;41.00;;;;;32.06;9.49;100912.56;7720179;22;96674;-70
2023/02/09 09:34:13;;;;;;;;;50.00;40.00;;;;;32.28;9.37;100903.38;7754711;22;96689;-69
2023/02/09 09:37:16;;;;;;;;;51.60;41.00;;;;;32.57;8.97;100915.72;7736112;22;96617;-70
2023/02/09 09:40:22;;;;;;;;;53.80;43.00;;;;;32.67;8.21;100920.25;7759884;22;96507;-68
2023/02/09 09:43:33;;;;;;;;;52.00;42.50;;;;;32.35;8.86;100920.53;7759860;22;96736;-70
2023/02/09 09:46:41;;;;;;;;;42.75;34.75;;;;;32.33;8.33;100904.06;7731476;22;96674;-70
2023/02/09 09:49:45;;;;;;;;;43.00;35.00;;;;;32.80;8.84;100910.13;7760428;22;96826;-70
2023/02/09 09:52:52;;;;;;;;;49.40;40.40;;;;;32.57;8.24;100901.75;7734447;22;98327;-70
2023/02/09 09:56:08;;;;;;;;;52.60;41.00;;;;;32.29;8.79;100899.44;7756834;22;96501;-69
2023/02/09 09:59:16;;;;;;;;;55.60;45.00;;;;;32.11;9.14;100904.06;7724376;22;96641;-69
2023/02/09 10:02:28;;;;;;;;;66.60;50.60;;;;;31.83;9.67;100895.78;7747847;22;96022;-70
2023/02/09 10:05:38;;;;;;;;;58.00;46.00;;;;;31.17;9.66;100890.81;7742038;22;96232;-70
2023/02/09 10:08:45;;;;;;;;;65.40;51.00;;;;;30.19;9.84;100888.44;7711492;22;96143;-70
2023/02/09 10:11:53;;;;;;;;;63.20;50.60;;;;;29.08;10.83;100866.63;7740502;22;96862;-69
2023/02/09 10:14:56;;;;;;;;;63.80;50.00;;;;;28.16;11.20;100871.44;7740452;22;96219;-68
2023/02/09 10:18:02;;;;;;;;;61.00;48.00;;;;;27.63;11.69;100883.44;7712210;22;96635;-68
2023/02/09 10:21:07;;;;;;;;;62.25;50.00;;;;;27.40;11.54;100882.16;7740269;22;98114;-69
2023/02/09 10:24:13;;;;;;;;;62.20;49.00;;;;;27.25;12.24;100883.06;7737690;22;96764;-69
2023/02/09 10:27:26;;;;;;;;;52.40;43.40;;;;;27.09;11.02;100871.22;7710149;22;96714;-69
2023/02/09 10:30:29;;;;;;;;;50.00;42.00;;;;;27.39;11.22;100864.72;7709290;22;96785;-69
2023/02/09 10:33:42;;;;;;;;;53.00;44.00;;;;;27.67;11.35;100862.34;7710382;22;96322;-69
2023/02/09 10:36:49;;;;;;;;;49.60;40.00;;;;;28.28;10.63;100862.75;7739252;22;96214;-69
2023/02/09 10:40:07;;;;;;;;;46.80;36.00;;;;;28.77;10.18;100837.56;7737932;22;96395;-68
2023/02/09 10:43:21;;;;;;;;;41.00;35.00;;;;;29.36;10.29;100841.84;7713110;22;96606;-69
2023/02/09 10:46:25;;;;;;;;;28.00;27.00;;;;;28.98;9.12;100824.28;7739119;22;96360;-69
2023/02/09 10:49:34;;;;;;;;;28.40;27.00;;;;;28.81;9.33;100836.69;7739830;22;96300;-69
2023/02/09 10:52:44;;;;;;;;;23.00;22.00;;;;;27.77;9.90;100837.34;7711604;22;96609;-69
2023/02/09 10:55:47;;;;;;;;;22.00;22.00;;;;;27.57;9.64;100835.53;7686791;22;96552;-69
2023/02/09 10:58:53;;;;;;;;;22.75;20.75;;;;;28.08;9.42;100835.16;7712729;22;96295;-68
2023/02/09 11:01:58;;;;;;;;;22.00;21.00;;;;;27.89;9.87;100829.50;7712456;22;99229;-69
2023/02/09 11:05:24;;;;;;;;;20.60;19.60;;;;;27.99;9.68;100826.66;7740104;22;96608;-69
2023/02/09 11:08:39;;;;;;;;;21.00;20.00;;;;;27.07;10.13;100820.03;7739300;22;96844;-70
2023/02/09 11:11:44;;;;;;;;;23.00;21.00;;;;;26.93;9.99;100818.94;7737451;22;96412;-69
2023/02/09 11:14:48;;;;;;;;;21.00;20.60;;;;;26.69;10.49;100800.19;7737817;22;97520;-69
2023/02/09 11:17:57;;;;;;;;;21.00;19.20;;;;;27.42;9.75;100788.50;7709961;22;96386;-69
2023/02/09 11:21:10;;;;;;;;;19.00;18.00;;;;;28.10;9.92;100786.59;7709847;22;98356;-69
2023/02/09 11:24:23;;;;;;;;;21.25;20.00;;;;;28.38;8.73;100785.81;7736691;22;96293;-69
2023/02/09 11:27:48;;;;;;;;;25.00;21.00;;;;;28.30;9.83;100783.66;7734031;22;96191;-69
2023/02/09 11:31:12;;;;;;;;;21.75;19.00;;;;;28.21;8.77;100779.88;7735632;22;96925;-69
2023/02/09 11:34:33;;;;;;;;;21.40;20.40;;;;;28.65;8.69;100768.56;7735794;22;96169;-69
2023/02/09 11:37:45;;;;;;;;;20.75;18.50;;;;;28.67;9.19;100760.78;7735698;22;96372;-69
2023/02/09 11:40:52;;;;;;;;;22.00;20.00;;;;;28.36;8.99;100760.28;7736582;22;96270;-69
2023/02/09 11:44:00;;;;;;;;;20.20;18.40;;;;;28.20;8.89;100752.44;7737639;22;96966;-69
2023/02/09 11:47:06;;;;;;;;;24.00;19.00;;;;;28.49;9.24;100757.94;7710061;22;96520;-69
2023/02/09 11:50:15;;;;;;;;;20.40;18.00;;;;;28.87;9.11;100753.34;7684146;22;97038;-69
2023/02/09 11:53:28;;;;;;;;;17.60;17.00;;;;;28.87;8.85;100748.59;7737272;22;96587;-70
2023/02/09 11:56:36;;;;;;;;;18.60;17.20;;;;;28.87;8.45;100750.56;7710291;22;96168;-69
2023/02/09 11:59:45;;;;;;;;;17.50;16.25;;;;;28.78;8.54;100747.63;7709674;22;96946;-69
2023/02/09 12:02:58;;;;;;;;;17.75;16.75;;;;;28.86;8.80;100746.94;7737209;22;96214;-70
2023/02/09 12:06:02;;;;;;;;;17.00;14.40;;;;;29.01;8.80;100741.19;7710686;22;96201;-69
2023/02/09 12:09:20;;;;;;;;;18.75;16.75;;;;;28.84;9.16;100738.09;7737461;22;96329;-69
2023/02/09 12:12:29;;;;;;;;;16.00;15.00;;;;;27.87;8.97;100732.75;7737471;22;96073;-70
2023/02/09 12:15:41;;;;;;;;;19.00;17.00;;;;;27.81;9.40;100717.28;7710064;22;96597;-70
2023/02/09 12:18:46;;;;;;;;;16.00;15.00;;;;;27.42;9.23;100705.41;7708510;22;96267;-69
2023/02/09 12:21:49;;;;;;;;;17.00;16.00;;;;;27.52;9.24;100705.34;7709432;22;96439;-68
2023/02/09 12:25:17;;;;;;;;;17.67;17.00;;;;;27.12;9.47;100704.50;7736331;22;96292;-68
2023/02/09 12:28:45;;;;;;;;;17.00;15.50;;;;;27.38;9.37;100688.53;7736688;22;96255;-70
2023/02/09 12:32:23;;;;;;;;;21.00;19.00;;;;;27.48;9.52;100684.84;7709484;22;96781;-69
2023/02/09 12:35:28;;;;;;;;;18.40;16.00;;;;;27.31;9.06;100679.75;7684463;22;96663;-69
2023/02/09 12:38:46;;;;;;;;;19.60;18.00;;;;;27.15;9.56;100675.44;7710608;22;98315;-69
2023/02/09 12:42:26;;;;;;;;;20.00;18.20;;;;;26.79;9.76;100668.41;7736045;22;97049;-69
2023/02/09 12:45:34;;;;;;;;;21.00;20.00;;;;;26.43;10.07;100674.16;7707229;22;96234;-69
2023/02/09 12:48:47;;;;;;;;;21.50;19.00;;;;;25.81;10.08;100663.53;7734582;22;97444;-68
2023/02/09 12:52:12;;;;;;;;;20.50;18.50;;;;;24.78;10.41;100660.94;7708213;22;96481;-68
2023/02/09 12:55:19;;;;;;;;;20.00;19.00;;;;;23.88;11.17;100651.19;7735172;22;96806;-68
2023/02/09 12:58:39;;;;;;;;;17.75;17.75;;;;;23.07;11.74;100653.28;7707310;22;98470;-68
2023/02/09 13:02:11;;;;;;;;;21.40;19.60;;;;;22.27;12.30;100662.28;7734590;22;96629;-68
2023/02/09 13:05:17;;;;;;;;;20.60;19.00;;;;;21.73;12.71;100655.75;7734526;22;96369;-68
2023/02/09 13:08:37;;;;;;;;;21.40;21.00;;;;;21.18;12.86;100656.50;7708046;22;96911;-69
2023/02/09 13:11:48;;;;;;;;;23.00;22.40;;;;;20.91;13.64;100644.50;7708416;22;96676;-68
2023/02/09 13:14:52;;;;;;;;;23.50;22.00;;;;;20.59;13.48;100659.75;7735855;22;96351;-67
2023/02/09 13:18:06;;;;;;;;;20.50;19.00;;;;;20.32;13.85;100659.50;7736554;22;96382;-68
2023/02/09 13:21:20;;;;;;;;;18.40;18.00;;;;;19.83;13.25;100650.75;7736640;22;97045;-68
2023/02/09 13:24:32;;;;;;;;;16.20;14.80;;;;;19.40;13.32;100656.53;7709197;22;96855;-68
2023/02/09 13:27:43;;;;;;;;;16.00;15.00;;;;;18.96;13.71;100646.13;7736700;22;97874;-68
2023/02/09 13:30:49;;;;;;;;;24.20;21.60;;;;;18.96;13.92;100644.22;7737225;22;96402;-68
2023/02/09 13:33:57;;;;;;;;;14.50;14.00;;;;;18.67;14.16;100647.00;7709709;22;98434;-68
2023/02/09 13:37:12;;;;;;;;;13.40;12.40;;;;;18.62;13.58;100630.47;7709469;22;96378;-68
2023/02/09 13:40:20;;;;;;;;;14.00;12.67;;;;;18.57;13.84;100626.50;7709454;22;96998;-68
2023/02/09 13:43:28;;;;;;;;;15.00;13.60;;;;;18.48;14.36;100624.28;7736524;22;96286;-68
2023/02/09 13:46:34;;;;;;;;;16.00;15.40;;;;;18.16;14.13;100635.44;7709819;22;96111;-68
2023/02/09 13:49:37;;;;;;;;;13.40;13.40;;;;;17.69;14.58;100638.91;7708900;22;98345;-68
2023/02/09 13:52:40;;;;;;;;;13.40;12.40;;;;;17.12;14.44;100632.69;7736417;22;96267;-68
2023/02/09 13:55:47;;;;;;;;;17.00;14.00;;;;;16.64;14.65;100618.78;7736463;22;96228;-67
2023/02/09 13:58:51;;;;;;;;;16.00;15.00;;;;;16.40;15.58;100598.56;7736598;22;96274;-67
2023/02/09 14:01:56;;;;;;;;;14.80;13.40;;;;;16.25;15.47;100614.34;7708993;22;96915;-68
2023/02/09 14:05:05;;;;;;;;;17.00;16.00;;;;;16.04;16.21;100626.38;7709347;22;96324;-67
2023/02/09 14:08:09;;;;;;;;;17.40;15.40;;;;;16.00;16.25;100621.56;7736557;22;96500;-67
2023/02/09 14:11:26;;;;;;;;;18.00;16.00;;;;;15.64;16.82;100629.44;7709667;22;98374;-67
2023/02/09 14:18:28;;;;;;;;;22.50;20.00;;;;;14.38;17.72;100620.34;7737561;22;97426;-67
2023/02/09 14:21:43;;;;;;;;;25.75;24.00;;;;;14.16;18.35;100611.50;7737111;22;96229;-67
2023/02/09 14:24:46;;;;;;;;;21.00;20.00;;;;;14.13;19.04;100619.16;7710436;22;96446;-69